PWSweather.com
Personal Weather Stations
Station Observations
REBOX73
Petalia At Mount Pantokrator, CorfuGR 49081

Petalia At Mount PantokratorCorfuGR 49081

Lat: 39.747915, Lon: 19.841466

Elevation: 2132

Station Type: ws1080

http://pantokratoras-kerkyra.meteoclub.gr/

Latest ConditionsUpdated 3:15:00 PM GMT+01:01 Wednesday, Apr 1, 2015
Currently Today's Max Today's Min Today's Average
Temperature 59.9°F15.5°C 59.9°F15.5°C 48.6°F9.2°C 50.9°F10.5°C
Dew Point 56.7°F13.7°C 56.7°F13.7°C 44.5°F6.9°C 49.9°F9.9°C
Winds 2.1 mph NNW3.4 kmh NNW 12.6 mph SSW20.3 kmh SSW - 5.1 mph 8.2 kmh
Wind Gusts 3.8 mph6.1 kmh 16.8 mph27.0 kmh - -
Humidity 89% 99% 83% 97%
Pressure 29.80 in1009.1 mb 29.86 in1011.2 mb 29.78 in1008.5 mb -
Precipitation - 0.02 in0.5 mm - -
Hour Temp Dew Point Humidity Winds Wind Gusts Pressure Precip Precip Rate Daily Precip Total
03:15 PM 59.9°F15.5°C 56.7°F13.7°C 89% 2.1 mph NNW3.4 kmh NNW 3.8 mph6.1 kmh 29.80 in1009.1 mb 0.00 in0.0 mm 0.00 in0.0 mm 0.02 in0.5 mm
03:00 PM 57.7°F14.3°C 55.1°F12.8°C 91% 3.6 mph WNW5.8 kmh WNW 6.0 mph9.7 kmh 29.81 in1009.5 mb 0.00 in0.0 mm 0.00 in0.0 mm 0.02 in0.5 mm
02:45 PM 57.4°F14.1°C 55.7°F13.2°C 94% 1.5 mph WSW2.4 kmh WSW 3.1 mph5.0 kmh 29.81 in1009.5 mb 0.00 in0.0 mm 0.00 in0.0 mm 0.02 in0.5 mm
02:30 PM 56.1°F13.4°C 55.0°F12.8°C 96% 1.6 mph SW2.6 kmh SW 3.1 mph5.0 kmh 29.81 in1009.5 mb 0.00 in0.0 mm 0.00 in0.0 mm 0.02 in0.5 mm
02:15 PM 56.3°F13.5°C 56.0°F13.3°C 99% 1.6 mph SSW2.6 kmh SSW 2.2 mph3.5 kmh 29.81 in1009.5 mb 0.00 in0.0 mm 0.00 in0.0 mm 0.02 in0.5 mm
02:00 PM 55.0°F12.8°C 54.8°F12.7°C 99% 2.6 mph SSW4.2 kmh SSW 5.4 mph8.7 kmh 29.81 in1009.5 mb 0.00 in0.0 mm 0.00 in0.0 mm 0.02 in0.5 mm
01:45 PM 53.4°F11.9°C 53.2°F11.8°C 99% 4.6 mph SE7.4 kmh SE 6.9 mph11.1 kmh 29.82 in1009.8 mb 0.00 in0.0 mm 0.00 in0.0 mm 0.02 in0.5 mm
01:30 PM 54.0°F12.2°C 53.7°F12.1°C 99% 4.5 mph S7.2 kmh S 6.0 mph9.7 kmh 29.83 in1010.2 mb 0.00 in0.0 mm 0.00 in0.0 mm 0.02 in0.5 mm
01:15 PM 55.2°F12.9°C 55.0°F12.8°C 99% 5.5 mph S8.9 kmh S 9.2 mph14.8 kmh 29.82 in1009.8 mb 0.00 in0.0 mm 0.00 in0.0 mm 0.02 in0.5 mm
01:00 PM 54.3°F12.4°C 54.1°F12.3°C 99% 3.8 mph SSW6.1 kmh SSW 5.4 mph8.7 kmh 29.83 in1010.2 mb 0.00 in0.0 mm 0.00 in0.0 mm 0.02 in0.5 mm
12:45 PM 53.1°F11.7°C 52.8°F11.6°C 99% 4.4 mph SW7.1 kmh SW 7.6 mph12.2 kmh 29.83 in1010.2 mb 0.00 in0.0 mm 0.00 in0.0 mm 0.02 in0.5 mm
12:30 PM 51.6°F10.9°C 51.4°F10.8°C 99% 3.4 mph WSW5.5 kmh WSW 6.9 mph11.1 kmh 29.83 in1010.2 mb 0.00 in0.0 mm 0.00 in0.0 mm 0.02 in0.5 mm
12:15 PM 51.3°F10.7°C 51.0°F10.6°C 99% 5.4 mph SW8.7 kmh SW 8.3 mph13.4 kmh 29.83 in1010.2 mb 0.00 in0.0 mm 0.00 in0.0 mm 0.02 in0.5 mm
12:00 PM 51.3°F10.7°C 51.0°F10.6°C 99% 6.0 mph S9.7 kmh S 8.3 mph13.4 kmh 29.82 in1009.8 mb 0.00 in0.0 mm 0.00 in0.0 mm 0.02 in0.5 mm
11:45 AM 51.4°F10.8°C 51.2°F10.7°C 99% 7.4 mph S11.9 kmh S 10.7 mph17.2 kmh 29.82 in1009.8 mb 0.00 in0.0 mm 0.00 in0.0 mm 0.02 in0.5 mm
11:30 AM 51.3°F10.7°C 51.0°F10.6°C 99% 6.6 mph SSW10.6 kmh SSW 10.7 mph17.2 kmh 29.83 in1010.2 mb 0.00 in0.0 mm 0.00 in0.0 mm 0.02 in0.5 mm
11:15 AM 50.9°F10.5°C 50.6°F10.3°C 99% 5.8 mph SSW9.3 kmh SSW 8.3 mph13.4 kmh 29.84 in1010.5 mb 0.00 in0.0 mm 0.00 in0.0 mm 0.02 in0.5 mm
11:00 AM 50.5°F10.3°C 50.3°F10.2°C 99% 5.5 mph SSW8.9 kmh SSW 8.3 mph13.4 kmh 29.84 in1010.5 mb 0.01 in0.3 mm 0.00 in0.0 mm 0.02 in0.5 mm
10:30 AM 50.4°F10.2°C 50.1°F10.1°C 99% 7.0 mph SW11.3 kmh SW 11.4 mph18.3 kmh 29.84 in1010.5 mb 0.02 in0.5 mm 0.00 in0.0 mm 0.02 in0.5 mm
10:15 AM 50.2°F10.1°C 49.9°F9.9°C 99% 5.6 mph SSW9.0 kmh SSW 8.3 mph13.4 kmh 29.84 in1010.5 mb 0.02 in0.5 mm 0.04 in1.0 mm 0.02 in0.5 mm
10:00 AM 50.4°F10.2°C 50.1°F10.1°C 99% 4.9 mph SSW7.9 kmh SSW 8.3 mph13.4 kmh 29.84 in1010.5 mb 0.01 in0.3 mm 0.00 in0.0 mm 0.01 in0.3 mm
09:45 AM 50.2°F10.1°C 49.9°F9.9°C 99% 6.0 mph S9.7 kmh S 7.6 mph12.2 kmh 29.84 in1010.5 mb 0.01 in0.3 mm 0.04 in1.0 mm 0.01 in0.3 mm
09:30 AM 50.0°F10.0°C 49.7°F9.8°C 99% 4.2 mph S6.8 kmh S 7.6 mph12.2 kmh 29.85 in1010.8 mb 0.00 in0.0 mm 0.00 in0.0 mm 0.00 in0.0 mm
09:15 AM 50.0°F10.0°C 49.7°F9.8°C 99% 4.1 mph SSW6.6 kmh SSW 6.0 mph9.7 kmh 29.84 in1010.5 mb 0.00 in0.0 mm 0.00 in0.0 mm 0.00 in0.0 mm
09:00 AM 49.8°F9.9°C 49.6°F9.8°C 99% 2.7 mph WSW4.3 kmh WSW 3.8 mph6.1 kmh 29.83 in1010.2 mb 0.00 in0.0 mm 0.00 in0.0 mm 0.00 in0.0 mm
08:45 AM 49.6°F9.8°C 49.4°F9.7°C 99% 3.1 mph SSE5.0 kmh SSE 6.0 mph9.7 kmh 29.83 in1010.2 mb 0.00 in0.0 mm 0.00 in0.0 mm 0.00 in0.0 mm
08:30 AM 49.6°F9.8°C 49.4°F9.7°C 99% 3.4 mph WSW5.5 kmh WSW 6.9 mph11.1 kmh 29.83 in1010.2 mb 0.00 in0.0 mm 0.00 in0.0 mm 0.00 in0.0 mm
08:15 AM 49.5°F9.7°C 49.2°F9.6°C 99% 3.8 mph SSW6.1 kmh SSW 5.4 mph8.7 kmh 29.82 in1009.8 mb 0.00 in0.0 mm 0.00 in0.0 mm 0.00 in0.0 mm
08:00 AM 49.3°F9.6°C 49.0°F9.4°C 99% 5.3 mph SSE8.5 kmh SSE 9.8 mph15.8 kmh 29.82 in1009.8 mb 0.00 in0.0 mm 0.00 in0.0 mm 0.00 in0.0 mm
07:45 AM 49.1°F9.5°C 48.8°F9.3°C 99% 5.0 mph SW8.0 kmh SW 7.6 mph12.2 kmh 29.81 in1009.5 mb 0.00 in0.0 mm 0.00 in0.0 mm 0.00 in0.0 mm
07:30 AM 48.9°F9.4°C 48.7°F9.3°C 99% 5.0 mph SW8.0 kmh SW 10.7 mph17.2 kmh 29.81 in1009.5 mb 0.00 in0.0 mm 0.00 in0.0 mm 0.00 in0.0 mm
07:15 AM 48.7°F9.3°C 48.5°F9.2°C 99% 5.4 mph WSW8.7 kmh WSW 9.2 mph14.8 kmh 29.81 in1009.5 mb 0.00 in0.0 mm 0.00 in0.0 mm 0.00 in0.0 mm
07:00 AM 48.9°F9.4°C 48.7°F9.3°C 99% 6.5 mph S10.5 kmh S 9.2 mph14.8 kmh 29.81 in1009.5 mb 0.00 in0.0 mm 0.00 in0.0 mm 0.00 in0.0 mm
06:45 AM 48.9°F9.4°C 48.7°F9.3°C 99% 7.1 mph S11.4 kmh S 10.7 mph17.2 kmh 29.80 in1009.1 mb 0.00 in0.0 mm 0.00 in0.0 mm 0.00 in0.0 mm
06:30 AM 49.3°F9.6°C 49.0°F9.4°C 99% 6.9 mph S11.1 kmh S 10.7 mph17.2 kmh 29.79 in1008.8 mb 0.00 in0.0 mm 0.00 in0.0 mm 0.00 in0.0 mm
06:15 AM 54.3°F12.4°C 54.1°F12.3°C 99% 9.9 mph SSE15.9 kmh SSE 15.2 mph24.5 kmh 29.79 in1008.8 mb 0.00 in0.0 mm 0.00 in0.0 mm 0.00 in0.0 mm
06:00 AM 50.9°F10.5°C 50.6°F10.3°C 99% 12.6 mph SSW20.3 kmh SSW 16.8 mph27.0 kmh 29.79 in1008.8 mb 0.00 in0.0 mm 0.00 in0.0 mm 0.00 in0.0 mm
05:45 AM 49.1°F9.5°C 48.8°F9.3°C 99% 11.8 mph SSW19.0 kmh SSW 15.2 mph24.5 kmh 29.78 in1008.5 mb 0.00 in0.0 mm 0.00 in0.0 mm 0.00 in0.0 mm
05:30 AM 49.1°F9.5°C 48.8°F9.3°C 99% 8.8 mph S14.2 kmh S 15.2 mph24.5 kmh 29.78 in1008.5 mb 0.00 in0.0 mm 0.00 in0.0 mm 0.00 in0.0 mm
05:15 AM 48.9°F9.4°C 48.7°F9.3°C 99% 4.7 mph SW7.6 kmh SW 6.9 mph11.1 kmh 29.79 in1008.8 mb 0.00 in0.0 mm 0.00 in0.0 mm 0.00 in0.0 mm
05:00 AM 49.1°F9.5°C 48.8°F9.3°C 99% 6.2 mph SSW10.0 kmh SSW 11.4 mph18.3 kmh 29.80 in1009.1 mb 0.00 in0.0 mm 0.00 in0.0 mm 0.00 in0.0 mm
04:45 AM 49.5°F9.7°C 49.2°F9.6°C 99% 4.2 mph SSW6.8 kmh SSW 6.9 mph11.1 kmh 29.80 in1009.1 mb 0.00 in0.0 mm 0.00 in0.0 mm 0.00 in0.0 mm
04:30 AM 49.5°F9.7°C 49.2°F9.6°C 99% 4.2 mph W6.8 kmh W 7.6 mph12.2 kmh 29.80 in1009.1 mb 0.00 in0.0 mm 0.00 in0.0 mm 0.00 in0.0 mm
04:15 AM 49.3°F9.6°C 49.0°F9.4°C 99% 6.1 mph SE9.8 kmh SE 11.4 mph18.3 kmh 29.81 in1009.5 mb 0.00 in0.0 mm 0.00 in0.0 mm 0.00 in0.0 mm
04:00 AM 49.3°F9.6°C 49.0°F9.4°C 99% 5.6 mph SSE9.0 kmh SSE 10.7 mph17.2 kmh 29.81 in1009.5 mb 0.00 in0.0 mm 0.00 in0.0 mm 0.00 in0.0 mm
03:45 AM 49.5°F9.7°C 49.2°F9.6°C 99% 4.8 mph SSE7.7 kmh SSE 9.2 mph14.8 kmh 29.81 in1009.5 mb 0.00 in0.0 mm 0.00 in0.0 mm 0.00 in0.0 mm
03:30 AM 49.3°F9.6°C 48.5°F9.2°C 97% 5.9 mph S9.5 kmh S 10.7 mph17.2 kmh 29.82 in1009.8 mb 0.00 in0.0 mm 0.00 in0.0 mm 0.00 in0.0 mm
03:15 AM 48.9°F9.4°C 47.6°F8.7°C 95% 5.8 mph SSW9.3 kmh SSW 9.8 mph15.8 kmh 29.81 in1009.5 mb 0.00 in0.0 mm 0.00 in0.0 mm 0.00 in0.0 mm
03:00 AM 48.7°F9.3°C 46.2°F7.9°C 91% 6.4 mph SE10.3 kmh SE 10.7 mph17.2 kmh 29.83 in1010.2 mb 0.00 in0.0 mm 0.00 in0.0 mm 0.00 in0.0 mm
02:45 AM 48.7°F9.3°C 45.3°F7.4°C 88% 3.9 mph WSW6.3 kmh WSW 8.3 mph13.4 kmh 29.83 in1010.2 mb 0.00 in0.0 mm 0.00 in0.0 mm 0.00 in0.0 mm
02:30 AM 48.7°F9.3°C 45.0°F7.2°C 87% 2.9 mph W4.7 kmh W 5.4 mph8.7 kmh 29.83 in1010.2 mb 0.00 in0.0 mm 0.00 in0.0 mm 0.00 in0.0 mm
02:15 AM 48.6°F9.2°C 44.6°F7.0°C 86% 3.8 mph WNW6.1 kmh WNW 6.0 mph9.7 kmh 29.84 in1010.5 mb 0.00 in0.0 mm 0.00 in0.0 mm 0.00 in0.0 mm
02:00 AM 48.7°F9.3°C 44.7°F7.1°C 86% 3.7 mph NW6.0 kmh NW 7.6 mph12.2 kmh 29.84 in1010.5 mb 0.00 in0.0 mm 0.00 in0.0 mm 0.00 in0.0 mm
01:45 AM 48.9°F9.4°C 45.2°F7.3°C 87% 3.3 mph NW5.3 kmh NW 6.9 mph11.1 kmh 29.85 in1010.8 mb 0.00 in0.0 mm 0.00 in0.0 mm 0.00 in0.0 mm
01:30 AM 49.1°F9.5°C 45.7°F7.6°C 88% 5.1 mph WSW8.2 kmh WSW 9.8 mph15.8 kmh 29.86 in1011.2 mb 0.00 in0.0 mm 0.00 in0.0 mm 0.00 in0.0 mm
01:15 AM 49.3°F9.6°C 45.6°F7.6°C 87% 4.3 mph S6.9 kmh S 7.6 mph12.2 kmh 29.86 in1011.2 mb 0.00 in0.0 mm 0.00 in0.0 mm 0.00 in0.0 mm
01:00 AM 49.5°F9.7°C 44.5°F6.9°C 83% 4.5 mph NW7.2 kmh NW 8.3 mph13.4 kmh 29.86 in1011.2 mb 0.00 in0.0 mm 0.00 in0.0 mm 0.00 in0.0 mm
12:45 AM 50.0°F10.0°C 43.8°F6.6°C 79% 4.1 mph NW6.6 kmh NW 7.6 mph12.2 kmh 29.87 in1011.5 mb 0.00 in0.0 mm 0.00 in0.0 mm 0.00 in0.0 mm
12:30 AM 49.8°F9.9°C 43.6°F6.4°C 79% 3.9 mph W6.3 kmh W 6.0 mph9.7 kmh 29.87 in1011.5 mb 0.00 in0.0 mm 0.00 in0.0 mm 0.00 in0.0 mm
12:15 AM 50.0°F10.0°C 43.8°F6.6°C 79% 4.1 mph S6.6 kmh S 5.4 mph8.7 kmh 29.86 in1011.2 mb 0.00 in0.0 mm 0.00 in0.0 mm 0.00 in0.0 mm
12:00 AM 50.2°F10.1°C 43.3°F6.3°C 77% 5.0 mph SSW8.0 kmh SSW 7.6 mph12.2 kmh 29.88 in1011.9 mb 0.00 in0.0 mm 0.00 in0.0 mm 0.00 in0.0 mm